ENAN/ANX METAR and TAF weather

Enter ICAO airport designator
Station Type Date Time Source
ENAN METAR 2018/04/21 11:20 UTC NOAA

ENAN 211120Z 04008KT 9999 SCT072 BKN096 06/03 Q0999


Station Type Date Time Source
ENAN Decoded METAR 2018/04/21 11:20 UTC NOAA

Andoya, Norway (ENAN) 69-18N 016-09E 14M
Apr 21, 2018 - 07:20 AM EDT / 2018.04.21 1120 UTC
Wind: from the NE (040 degrees) at 9 MPH (8 KT):0
Visibility: greater than 7 mile(s):0
Sky conditions: mostly cloudy
Temperature: 42 F (6 C)
Dew Point: 37 F (3 C)
Relative Humidity: 81%
Pressure (altimeter): 29.50 in. Hg (0999 hPa)
ob: ENAN 211120Z 04008KT 9999 SCT072 BKN096 06/03 Q0999
cycle: 11

Station Type Date Time Source
ENAN TAF 2018/04/21 06:57 UTC NOAA

TAF TAF ENAN 210500Z 2106/2206 18005KT 9999 SCT030 BKN060


Example: see airport list